Charlottetown, Prince Edward Island

1:39 PM ADT on June 03, 2015 (GMT -0300)
Charlottetown | | Change Station
CLOSE
Current Station
Airport
Location: Charlottetown,
Elevation: 157 ft
Nearby Weather Stations

Elev 157 ft 46.29 °N, 63.13 °W | Updated 39 minutes ago

Light Drizzle
Light Drizzle Mist
45 °F
Feels Like 36 °F
N
23
Wind Variable Wind from NE
Gusts 33 mph

Today is forecast to be nearly the same temperature as yesterday.

Today
High -- | Low -- °F
--% Chance of Precip.
Yesterday
High -- | Low -- °F
Precip. -- in
5:23 AM 8:58 PM
Full, 99% visible
Pressure 30.11 in
Visibility 5.0 miles
Clouds Overcast 600 ft
Windchill 36 °F
Dew Point 43 °F
Humidity 93%
Rainfall 0.00 in
Snow Depth Not available.
UV 3 out of 12
Pollen Not available.
Air Quality Not available.
Flu Activity Not available.
METAR CYYG 031600Z 05020G29KT 5SM -DZ BR OVC006 07/06 A3010 RMK SF8 PRESFR SLP194

More Conditions Fewer Conditions

Pressure 30.11 in
Visibility 5.0 miles
Clouds Overcast 600 ft
Windchill 36 °F
Dew Point 43 °F
Humidity 93%
Rainfall 0.00 in
Snow Depth Not available.
UV 3 out of 12
Pollen Not available.
Air Quality Not available.
Flu Activity Not available.
METAR CYYG 031600Z 05020G29KT 5SM -DZ BR OVC006 07/06 A3010 RMK SF8 PRESFR SLP194

More Conditions Fewer Conditions

10-Day Weather Forecast

×

Almanac

Astronomy

Jun. 03, 2015 Rise Set
Actual Time
Civil Twilight
Nautical Twilight
Astronomical Twilight
Moon
Length of Visible Light
Length of Day
Tomorrow will be .
, % of the Moon is Illuminated

Today's Extremes

Country Highs Country Lows

Community

WunderPhotos

Upload Photos

1,826,254 photos uploaded!

WunderBlogs® & News

Nearby

Air Quality

  Air Quality AQ Index Pollutant
Not available.

Snow Depth

Station Depth Elevation

Earthquake Activity

City Distance Mag. Time & Date
Minimum magnitude displayed is 2.5.

Coastal Water Temperatures

Place Temperature

Stations

Nearby Weather Stations

Station Location Temp. Windchill Dew Point Humidity Wind Precip. Elev Updated Type